Battle Creek, MI (49016)

9:02 AM EST on March 04, 2015 (GMT -0500)
Wattles Park | Change Station
CLOSE
Current Station
Personal Weather Station
Location: Battle Creek, MI
Elevation: 903 ft
Nearby Weather Stations

Elev 903 ft 42.32 °N, 85.11 °W | Updated 4 seconds ago

Overcast
Overcast
26.4 °F
Feels Like 22 °F
N
4.0
Wind Variable Wind from NW
Gusts 10.0 mph

Today
High -- | Low -- °F
--% Chance of Precip.
Yesterday
High -- | Low -- °F
Precip. -- in
7:11 AM 6:33 PM
Waxing Gibbous, 99% visible
Pressure 29.94 in
Visibility 10.0 miles
Clouds Mostly Cloudy 2400 ft
Overcast 3300 ft
Windchill 22 °F
Dew Point 20 °F
Humidity 77%
Rainfall 0.00 in
Snow Depth Not available.
UV 0 out of 12
Pollen .30 out of 12
Air Quality Not available.
Flu Activity Not available.
SPECI KBTL 041310Z 32012KT 10SM BKN024 OVC033 M02/M07 A2994 RMK AO2 T10171067

More Conditions Fewer Conditions

Pressure 29.94 in
Visibility 10.0 miles
Clouds Mostly Cloudy 2400 ft
Overcast 3300 ft
Windchill 22 °F
Dew Point 20 °F
Humidity 77%
Rainfall 0.00 in
Snow Depth Not available.
UV 0 out of 12
Pollen .30 out of 12
Air Quality Not available.
Flu Activity Not available.
SPECI KBTL 041310Z 32012KT 10SM BKN024 OVC033 M02/M07 A2994 RMK AO2 T10171067

More Conditions Fewer Conditions

10-Day Weather Forecast

Almanac

Astronomy

Mar. 04, 2015 Rise Set
Actual Time
Civil Twilight
Nautical Twilight
Astronomical Twilight
Moon
Length of Visible Light
Length of Day
Tomorrow will be .
, % of the Moon is Illuminated

Today's Extremes

State Highs State Lows

Community

WunderPhotos

Upload Photos

1,802,456 photos uploaded!

WunderBlogs® & News

Nearby

Air Quality

  Air Quality AQ Index Pollutant
Not available.

Snow Depth

Station Depth Elevation

Earthquake Activity

City Distance Mag. Time & Date
Minimum magnitude displayed is 2.5.

Coastal Water Temperatures

Place Temperature

Nearby Weather Stations